Lordsburg, Lordsburg Municipal Airport (KLSB)

NameLordsburg Municipal Airport
CityLordsburg
CountryUnited States
ICAOKLSB
IATA
Altitude1307 m
CoordinatesGoogle Map
Live Air TrafficLiveATC.net
METARKLSB 012155Z AUTO 32009G14KT 10SM CLR 31/13 A3005 RMK AO2 LTG DSNT ALQS
2016-08-01 19:55:00 Wind: Northwest (320°) 4.63 m/s - Visibility: 16093.4 m - Temperature: 31 °C - Dew point: 13 °C - Humidity: 33.2% - Pressure: 1017.61 hPa

Sorry, no flights used the airport in this database.